Miao-li, Taiwan
Current Conditions -  °F | °C
As of 11:00 PM on Monday 24 Nov 2014 (Local Time) from RCMQ Reporting Station
Haze Haze  
Wind Chill: 68°   Ceiling: Unl
Heat Index: 68°   Visibility: 0.75mi
Dew Point: 66°   Wind: 2mph
Humidity: 94%   Direction: 160°SSE
Pressure: 29.94"   Gusts: NA
Location:  24.57°N, 120.82°E
Report Text: RCMQ 241500Z 16002KT 1200 BR SCT006 20/19 Q1014 NOSIG RMK A2997 R36/1800N
Loading
Personal Weather Stations






























Interactive Weather Map New forecast layout! Learn more

10-Day Weather Forecast

Advertisements
Track Severe Weather on mobile